Time;durP1;ratioP1;P1;durP2;ratioP2;P2;SDS_P1;SDS_P2;PMS_P1;PMS_P2;Temp;Humidity;BMP_temperature;BMP_pressure;BME280_temperature;BME280_humidity;BME280_pressure;Samples;Min_cycle;Max_cycle;Signal;HPM_P1;HPM_P2
2024/04/15 00:01:01;;;;;;;4.17;2.40;;;;;;;;;;5448285;26;20227;-80
2024/04/15 00:03:27;;;;;;;2.93;2.53;;;;;;;;;;5447555;26;20338;-80
2024/04/15 00:05:53;;;;;;;2.70;2.47;;;;;;;;;;5446295;26;20665;-80
2024/04/15 00:08:19;;;;;;;2.73;2.47;;;;;;;;;;5448760;26;20217;-80
2024/04/15 00:10:45;;;;;;;2.63;2.43;;;;;;;;;;5448104;26;20222;-80
2024/04/15 00:13:11;;;;;;;2.43;2.23;;;;;;;;;;5448339;26;20775;-80
2024/04/15 00:15:37;;;;;;;2.93;2.50;;;;;;;;;;5416564;26;20234;-80
2024/04/15 00:18:03;;;;;;;2.43;2.23;;;;;;;;;;5447769;26;20333;-80
2024/04/15 00:20:29;;;;;;;2.80;2.50;;;;;;;;;;5447905;26;20218;-80
2024/04/15 00:22:55;;;;;;;3.13;2.10;;;;;;;;;;5413486;26;20544;-82
2024/04/15 00:25:22;;;;;;;4.60;2.17;;;;;;;;;;5443656;26;20256;-77
2024/04/15 00:27:48;;;;;;;3.00;2.20;;;;;;;;;;5443955;26;20607;-77
2024/04/15 00:30:14;;;;;;;2.33;2.10;;;;;;;;;;5444091;26;20260;-77
2024/04/15 00:32:40;;;;;;;3.07;2.40;;;;;;;;;;5445243;26;20276;-79
2024/04/15 00:35:06;;;;;;;2.37;2.17;;;;;;;;;;5446056;26;20282;-79
2024/04/15 00:37:32;;;;;;;2.83;2.33;;;;;;;;;;5445764;26;20226;-79
2024/04/15 00:39:58;;;;;;;2.27;2.07;;;;;;;;;;5445820;26;20217;-79
2024/04/15 00:42:24;;;;;;;2.37;1.90;;;;;;;;;;5446800;26;20325;-79
2024/04/15 00:44:50;;;;;;;2.70;1.90;;;;;;;;;;5445790;26;20678;-78
2024/04/15 00:47:18;;;;;;;2.30;2.10;;;;;;;;;;5461188;21;20289;-81
2024/04/15 00:49:44;;;;;;;3.20;2.10;;;;;;;;;;5484420;26;20221;-79
2024/04/15 00:52:11;;;;;;;2.93;2.17;;;;;;;;;;5485400;26;20675;-80
2024/04/15 00:54:40;;;;;;;2.20;2.00;;;;;;;;;;5465084;26;20269;-80
2024/04/15 00:57:06;;;;;;;2.03;1.73;;;;;;;;;;5447588;26;20221;-82
2024/04/15 00:59:34;;;;;;;1.70;1.60;;;;;;;;;;5448173;26;20252;-80
2024/04/15 01:02:00;;;;;;;2.00;1.90;;;;;;;;;;5447851;26;20761;-80
2024/04/15 01:04:26;;;;;;;2.03;1.80;;;;;;;;;;5447121;26;20284;-80
2024/04/15 01:06:52;;;;;;;4.13;2.17;;;;;;;;;;5447355;26;20551;-82
2024/04/15 01:09:18;;;;;;;2.40;2.00;;;;;;;;;;5448156;26;20305;-78
2024/04/15 01:11:44;;;;;;;2.30;1.80;;;;;;;;;;5447330;26;20222;-77
2024/04/15 01:14:10;;;;;;;4.60;2.07;;;;;;;;;;5447266;26;20243;-78
2024/04/15 01:16:36;;;;;;;2.50;1.73;;;;;;;;;;5448639;26;20221;-80
2024/04/15 01:19:02;;;;;;;2.10;1.90;;;;;;;;;;5450913;26;20216;-79
2024/04/15 01:21:28;;;;;;;1.90;1.70;;;;;;;;;;5450454;26;20221;-80
2024/04/15 01:23:54;;;;;;;1.77;1.67;;;;;;;;;;5450946;26;20230;-80
2024/04/15 01:26:20;;;;;;;4.37;2.00;;;;;;;;;;5450792;26;20281;-80
2024/04/15 01:28:46;;;;;;;2.97;2.20;;;;;;;;;;5446209;26;20209;-78
2024/04/15 01:31:12;;;;;;;1.73;1.63;;;;;;;;;;5447173;26;20702;-79
2024/04/15 01:33:38;;;;;;;1.67;1.57;;;;;;;;;;5448478;26;20297;-81
2024/04/15 01:36:05;;;;;;;2.80;1.90;;;;;;;;;;5449874;26;20212;-78
2024/04/15 01:38:31;;;;;;;3.20;1.93;;;;;;;;;;5448373;26;20223;-80
2024/04/15 01:40:56;;;;;;;2.27;1.87;;;;;;;;;;5447842;26;20263;-78
2024/04/15 01:43:23;;;;;;;2.03;1.70;;;;;;;;;;5450498;26;20619;-80
2024/04/15 01:45:49;;;;;;;2.33;2.03;;;;;;;;;;5450702;26;20703;-80
2024/04/15 01:48:15;;;;;;;2.20;2.00;;;;;;;;;;5450580;26;20231;-80
2024/04/15 01:50:41;;;;;;;2.73;2.10;;;;;;;;;;5448121;26;20263;-78
2024/04/15 01:53:11;;;;;;;2.40;1.80;;;;;;;;;;5449048;26;20605;-79
2024/04/15 01:55:37;;;;;;;3.87;1.90;;;;;;;;;;5449710;26;20292;-80
2024/04/15 01:58:03;;;;;;;2.77;2.00;;;;;;;;;;5449915;26;20213;-78
2024/04/15 02:00:29;;;;;;;2.10;1.90;;;;;;;;;;5450155;26;20212;-78
2024/04/15 02:02:55;;;;;;;2.47;2.03;;;;;;;;;;5449819;26;20255;-80
2024/04/15 02:05:21;;;;;;;2.40;1.93;;;;;;;;;;5449770;26;20227;-79
2024/04/15 02:07:48;;;;;;;2.20;1.93;;;;;;;;;;5449522;26;20216;-79
2024/04/15 02:10:14;;;;;;;3.03;2.00;;;;;;;;;;5449481;26;20263;-80
2024/04/15 02:12:40;;;;;;;2.33;1.73;;;;;;;;;;5449983;26;20311;-79
2024/04/15 02:15:06;;;;;;;3.70;1.87;;;;;;;;;;5449851;26;20309;-79
2024/04/15 02:17:32;;;;;;;2.07;1.73;;;;;;;;;;5449818;26;20638;-81
2024/04/15 02:19:58;;;;;;;2.00;1.80;;;;;;;;;;5447736;26;20213;-78
2024/04/15 02:22:24;;;;;;;1.80;1.70;;;;;;;;;;5448173;26;20345;-77
2024/04/15 02:24:51;;;;;;;2.80;1.60;;;;;;;;;;5448030;26;20272;-78
2024/04/15 02:27:17;;;;;;;1.70;1.60;;;;;;;;;;5448891;26;20217;-80
2024/04/15 02:29:43;;;;;;;2.17;1.67;;;;;;;;;;5449629;26;20547;-80
2024/04/15 02:32:09;;;;;;;4.10;1.90;;;;;;;;;;5448815;26;20213;-79
2024/04/15 02:34:35;;;;;;;2.47;1.63;;;;;;;;;;5448856;26;20230;-78
2024/04/15 02:37:01;;;;;;;1.60;1.50;;;;;;;;;;5449002;26;20248;-79
2024/04/15 02:39:27;;;;;;;2.30;1.67;;;;;;;;;;5449561;26;20217;-80
2024/04/15 02:41:53;;;;;;;1.90;1.70;;;;;;;;;;5449918;26;20213;-80
2024/04/15 02:44:19;;;;;;;2.10;1.83;;;;;;;;;;5450239;26;20248;-79
2024/04/15 02:46:45;;;;;;;2.27;1.63;;;;;;;;;;5449630;26;20248;-79
2024/04/15 02:49:11;;;;;;;2.47;1.87;;;;;;;;;;5449217;26;20645;-77
2024/04/15 02:51:37;;;;;;;1.83;1.43;;;;;;;;;;5447980;26;20319;-78
2024/04/15 02:54:03;;;;;;;2.07;1.77;;;;;;;;;;5448260;26;20231;-78
2024/04/15 02:56:29;;;;;;;2.50;1.70;;;;;;;;;;5448221;26;20260;-77
2024/04/15 02:58:55;;;;;;;1.60;1.50;;;;;;;;;;5449610;26;20210;-76
2024/04/15 03:01:21;;;;;;;2.03;1.30;;;;;;;;;;5452062;26;20704;-79
2024/04/15 03:03:47;;;;;;;1.70;1.57;;;;;;;;;;5452211;26;20237;-78
2024/04/15 03:06:13;;;;;;;3.10;1.50;;;;;;;;;;5420389;26;20256;-79
2024/04/15 03:08:39;;;;;;;2.03;1.30;;;;;;;;;;5451153;26;20214;-78
2024/04/15 03:11:09;;;;;;;2.63;1.77;;;;;;;;;;5450244;26;20209;-78
2024/04/15 03:13:36;;;;;;;1.70;1.60;;;;;;;;;;5450165;26;20299;-80
2024/04/15 03:16:02;;;;;;;1.67;1.47;;;;;;;;;;5450173;26;20224;-80
2024/04/15 03:18:28;;;;;;;2.00;1.67;;;;;;;;;;5450004;26;20271;-79
2024/04/15 03:20:54;;;;;;;1.93;1.73;;;;;;;;;;5446848;26;20581;-80
2024/04/15 03:23:20;;;;;;;2.30;1.83;;;;;;;;;;5446181;26;20313;-79
2024/04/15 03:25:46;;;;;;;2.73;1.87;;;;;;;;;;5446412;26;20697;-79
2024/04/15 03:28:12;;;;;;;1.60;1.50;;;;;;;;;;5446500;26;20301;-79
2024/04/15 03:30:38;;;;;;;2.27;2.07;;;;;;;;;;5445294;26;20301;-79
2024/04/15 03:33:04;;;;;;;4.30;2.30;;;;;;;;;;5448085;26;20221;-79
2024/04/15 03:35:30;;;;;;;3.00;2.47;;;;;;;;;;5447345;26;20257;-81
2024/04/15 03:37:57;;;;;;;3.63;2.50;;;;;;;;;;5447179;26;20695;-78
2024/04/15 03:40:23;;;;;;;3.10;2.63;;;;;;;;;;5447810;26;20704;-78
2024/04/15 03:42:48;;;;;;;2.50;2.30;;;;;;;;;;5447160;26;20255;-78
2024/04/15 03:45:15;;;;;;;4.00;2.90;;;;;;;;;;5446319;26;20233;-79
2024/04/15 03:47:41;;;;;;;3.40;2.63;;;;;;;;;;5447811;26;20237;-79
2024/04/15 03:50:07;;;;;;;2.50;2.30;;;;;;;;;;5448125;26;20290;-79
2024/04/15 03:52:33;;;;;;;2.70;2.50;;;;;;;;;;5447821;26;20217;-79
2024/04/15 03:54:59;;;;;;;2.57;2.37;;;;;;;;;;5447689;26;20716;-79
2024/04/15 03:57:25;;;;;;;3.20;2.57;;;;;;;;;;5447623;26;20324;-78
2024/04/15 03:59:51;;;;;;;2.93;2.63;;;;;;;;;;5447916;26;20225;-79
2024/04/15 04:02:17;;;;;;;3.27;2.80;;;;;;;;;;5447561;26;20228;-79
2024/04/15 04:04:43;;;;;;;3.30;3.00;;;;;;;;;;5447333;26;20294;-79
2024/04/15 04:07:09;;;;;;;2.90;2.60;;;;;;;;;;5447108;26;20741;-79
2024/04/15 04:09:35;;;;;;;8.93;3.10;;;;;;;;;;5447289;26;20216;-79
2024/04/15 04:12:01;;;;;;;4.80;3.43;;;;;;;;;;5414147;26;20224;-77
2024/04/15 04:14:28;;;;;;;4.07;2.67;;;;;;;;;;5446043;26;20664;-78
2024/04/15 04:16:54;;;;;;;5.93;3.33;;;;;;;;;;5447628;26;20216;-79
2024/04/15 04:19:25;;;;;;;5.13;3.20;;;;;;;;;;5447558;26;20220;-78
2024/04/15 04:21:51;;;;;;;5.27;3.00;;;;;;;;;;5448166;26;20266;-78
2024/04/15 04:24:17;;;;;;;5.13;2.87;;;;;;;;;;5447789;26;20235;-79
2024/04/15 04:26:43;;;;;;;4.27;3.27;;;;;;;;;;5447856;26;20223;-79
2024/04/15 04:29:09;;;;;;;3.83;3.00;;;;;;;;;;5447450;26;20263;-78
2024/04/15 04:31:37;;;;;;;4.87;3.07;;;;;;;;;;5415942;26;20292;-77
2024/04/15 04:34:03;;;;;;;6.30;3.27;;;;;;;;;;5447508;26;20710;-80
2024/04/15 04:36:30;;;;;;;8.33;3.37;;;;;;;;;;5416497;26;20272;-80
2024/04/15 04:38:56;;;;;;;4.33;3.70;;;;;;;;;;5448234;26;20305;-79
2024/04/15 04:41:22;;;;;;;4.70;3.67;;;;;;;;;;5448281;26;20231;-79
2024/04/15 04:43:48;;;;;;;4.60;3.78;;;;;;;;;;5446872;26;20358;-79
2024/04/15 04:46:16;;;;;;;4.83;3.83;;;;;;;;;;5448193;26;20216;-79
2024/04/15 04:48:42;;;;;;;5.37;3.37;;;;;;;;;;5447434;26;20274;-79
2024/04/15 04:51:08;;;;;;;6.90;3.40;;;;;;;;;;5447145;26;20710;-79
2024/04/15 04:53:34;;;;;;;4.80;3.70;;;;;;;;;;5446959;26;20344;-79
2024/04/15 04:56:10;;;;;;;3.43;3.13;;;;;;;;;;5446656;26;20261;-79
2024/04/15 04:58:36;;;;;;;4.87;3.20;;;;;;;;;;5446450;26;20272;-80
2024/04/15 05:01:15;;;;;;;3.53;2.90;;;;;;;;;;5446075;26;20257;-79
2024/04/15 05:03:48;;;;;;;4.17;3.33;;;;;;;;;;5445628;26;20815;-79
2024/04/15 05:06:15;;;;;;;5.03;3.10;;;;;;;;;;5446326;26;20249;-80
2024/04/15 05:08:41;;;;;;;3.63;3.33;;;;;;;;;;5446396;26;20225;-79
2024/04/15 05:11:08;;;;;;;4.10;3.23;;;;;;;;;;5447409;26;20227;-79
2024/04/15 05:13:34;;;;;;;6.03;3.07;;;;;;;;;;5447444;26;20302;-80
2024/04/15 05:16:04;;;;;;;5.50;2.83;;;;;;;;;;5447790;26;20225;-80
2024/04/15 05:18:30;;;;;;;3.53;2.70;;;;;;;;;;5446056;26;20229;-80
2024/04/15 05:20:56;;;;;;;4.13;2.90;;;;;;;;;;5446586;26;20266;-80
2024/04/15 05:23:22;;;;;;;3.03;2.73;;;;;;;;;;5445694;26;20278;-80
2024/04/15 05:25:48;;;;;;;3.77;2.80;;;;;;;;;;5445858;26;20720;-80
2024/04/15 05:28:14;;;;;;;5.33;2.90;;;;;;;;;;5445920;26;20228;-80
2024/04/15 05:30:40;;;;;;;3.03;2.47;;;;;;;;;;5445631;26;20224;-80
2024/04/15 05:33:06;;;;;;;2.87;2.33;;;;;;;;;;5447062;26;20711;-80
2024/04/15 05:35:32;;;;;;;3.10;2.40;;;;;;;;;;5449346;26;20239;-80
2024/04/15 05:37:58;;;;;;;2.60;2.40;;;;;;;;;;5445981;26;20281;-80
2024/04/15 05:40:24;;;;;;;2.53;2.33;;;;;;;;;;5446212;26;20223;-80
2024/04/15 05:42:50;;;;;;;2.53;2.33;;;;;;;;;;5414403;26;20233;-80
2024/04/15 05:45:16;;;;;;;3.57;2.77;;;;;;;;;;5445690;26;20302;-80
2024/04/15 05:47:42;;;;;;;3.50;2.37;;;;;;;;;;5446085;26;20741;-80
2024/04/15 05:50:08;;;;;;;2.73;2.53;;;;;;;;;;5445400;26;20222;-80
2024/04/15 05:52:34;;;;;;;5.27;2.90;;;;;;;;;;5446281;26;20237;-80
2024/04/15 05:55:00;;;;;;;3.20;2.90;;;;;;;;;;5449995;26;20254;-81
2024/04/15 05:57:26;;;;;;;4.20;2.93;;;;;;;;;;5450747;26;20231;-80
2024/04/15 05:59:52;;;;;;;3.60;2.30;;;;;;;;;;5450804;26;20323;-80
2024/04/15 06:02:18;;;;;;;4.47;2.23;;;;;;;;;;5451780;26;20700;-81
2024/04/15 06:04:44;;;;;;;3.13;2.30;;;;;;;;;;5450500;26;20272;-80
2024/04/15 06:07:10;;;;;;;2.87;2.27;;;;;;;;;;5451122;26;20222;-81
2024/04/15 06:09:39;;;;;;;2.70;2.07;;;;;;;;;;5451178;26;20230;-81
2024/04/15 06:12:05;;;;;;;2.20;1.83;;;;;;;;;;5451449;26;20282;-80
2024/04/15 06:14:31;;;;;;;3.03;2.20;;;;;;;;;;5450672;26;20728;-81
2024/04/15 06:16:58;;;;;;;2.00;1.80;;;;;;;;;;5451020;26;20713;-81
2024/04/15 06:19:24;;;;;;;2.10;1.77;;;;;;;;;;5450258;26;20222;-80
2024/04/15 06:21:51;;;;;;;2.03;1.80;;;;;;;;;;5450460;26;20256;-79
2024/04/15 06:24:18;;;;;;;1.90;1.70;;;;;;;;;;5449574;26;20235;-79
2024/04/15 06:26:44;;;;;;;1.90;1.70;;;;;;;;;;5449934;26;20278;-78
2024/04/15 06:29:10;;;;;;;3.20;1.83;;;;;;;;;;5450387;26;20301;-81
2024/04/15 06:31:36;;;;;;;1.67;1.57;;;;;;;;;;5449952;26;20630;-80
2024/04/15 06:34:02;;;;;;;3.90;1.60;;;;;;;;;;5450000;26;20296;-81
2024/04/15 06:36:28;;;;;;;2.77;1.77;;;;;;;;;;5450518;26;20289;-80
2024/04/15 06:38:54;;;;;;;1.60;1.40;;;;;;;;;;5450197;26;20227;-81
2024/04/15 06:41:20;;;;;;;1.93;1.33;;;;;;;;;;5450257;26;20220;-79
2024/04/15 06:43:47;;;;;;;1.70;1.60;;;;;;;;;;5449545;26;20238;-81
2024/04/15 06:46:13;;;;;;;2.80;1.60;;;;;;;;;;5449448;26;20227;-79
2024/04/15 06:48:40;;;;;;;3.13;1.70;;;;;;;;;;5449493;26;20329;-81
2024/04/15 06:51:07;;;;;;;1.60;1.50;;;;;;;;;;5449380;26;20284;-80
2024/04/15 06:53:33;;;;;;;3.00;1.47;;;;;;;;;;5448717;26;20224;-80
2024/04/15 06:55:59;;;;;;;2.70;1.70;;;;;;;;;;5448643;26;20222;-80
2024/04/15 06:58:26;;;;;;;2.87;1.40;;;;;;;;;;5448244;26;20281;-79
2024/04/15 07:00:52;;;;;;;3.53;1.47;;;;;;;;;;5447869;26;20677;-79
2024/04/15 07:03:19;;;;;;;2.47;1.37;;;;;;;;;;5447871;26;20227;-79
2024/04/15 07:05:45;;;;;;;1.53;1.43;;;;;;;;;;5446104;26;20706;-78
2024/04/15 07:08:11;;;;;;;1.60;1.50;;;;;;;;;;5447967;26;20265;-80
2024/04/15 07:10:37;;;;;;;1.83;1.40;;;;;;;;;;5449041;26;20224;-79
2024/04/15 07:13:04;;;;;;;2.03;1.70;;;;;;;;;;5450032;26;20225;-80
2024/04/15 07:15:33;;;;;;;1.87;1.73;;;;;;;;;;5448970;26;20261;-78
2024/04/15 07:17:59;;;;;;;1.83;1.70;;;;;;;;;;5450366;26;20227;-78
2024/04/15 07:20:25;;;;;;;3.07;1.70;;;;;;;;;;5449486;26;20236;-79
2024/04/15 07:22:51;;;;;;;2.50;1.87;;;;;;;;;;5449511;26;20305;-79
2024/04/15 07:25:18;;;;;;;3.03;1.60;;;;;;;;;;5449149;26;20246;-78
2024/04/15 07:27:44;;;;;;;2.47;1.50;;;;;;;;;;5448910;26;20272;-79
2024/04/15 07:30:10;;;;;;;1.63;1.53;;;;;;;;;;5450153;26;20327;-79
2024/04/15 07:32:37;;;;;;;6.87;1.67;;;;;;;;;;5450494;26;20225;-79
2024/04/15 07:35:04;;;;;;;2.73;1.80;;;;;;;;;;5418978;26;20244;-79
2024/04/15 07:37:30;;;;;;;1.97;1.70;;;;;;;;;;5450168;26;20267;-79
2024/04/15 07:39:56;;;;;;;2.37;1.80;;;;;;;;;;5450190;26;20267;-77
2024/04/15 07:42:22;;;;;;;2.13;1.63;;;;;;;;;;5450698;26;20245;-78
2024/04/15 07:44:49;;;;;;;3.17;2.10;;;;;;;;;;5450759;26;20237;-79
2024/04/15 07:47:15;;;;;;;4.27;1.90;;;;;;;;;;5450618;26;20299;-79
2024/04/15 07:49:41;;;;;;;2.53;1.83;;;;;;;;;;5450111;26;20758;-79
2024/04/15 07:52:07;;;;;;;3.40;1.97;;;;;;;;;;5451752;26;20218;-79
2024/04/15 07:54:34;;;;;;;2.43;1.73;;;;;;;;;;5451637;26;20233;-80
2024/04/15 07:57:00;;;;;;;3.23;2.10;;;;;;;;;;5419828;26;20248;-79
2024/04/15 07:59:26;;;;;;;1.77;1.60;;;;;;;;;;5451189;26;20252;-79
2024/04/15 08:01:52;;;;;;;4.97;2.23;;;;;;;;;;5429818;21;20265;-80
2024/04/15 08:04:18;;;;;;;2.67;2.10;;;;;;;;;;5431422;26;20265;-79
2024/04/15 08:06:44;;;;;;;2.57;2.23;;;;;;;;;;5378189;26;20252;-79
2024/04/15 08:09:10;;;;;;;2.57;1.93;;;;;;;;;;5378001;26;20229;-80
2024/04/15 08:11:36;;;;;;;2.43;2.23;;;;;;;;;;5409330;26;20291;-80
2024/04/15 08:14:02;;;;;;;4.20;2.20;;;;;;;;;;5410829;26;20230;-81
2024/04/15 08:16:29;;;;;;;2.77;2.23;;;;;;;;;;5412615;26;20215;-81
2024/04/15 08:18:55;;;;;;;2.93;2.27;;;;;;;;;;5413133;26;20601;-81
2024/04/15 08:21:21;;;;;;;2.80;2.03;;;;;;;;;;5413696;26;20249;-82
2024/04/15 08:23:47;;;;;;;2.60;2.40;;;;;;;;;;5412772;26;20718;-81
2024/04/15 08:26:13;;;;;;;3.40;2.80;;;;;;;;;;5413612;26;20214;-81
2024/04/15 08:28:40;;;;;;;5.30;2.87;;;;;;;;;;5413352;26;20277;-81
2024/04/15 08:31:06;;;;;;;4.37;2.27;;;;;;;;;;5412624;26;20227;-80
2024/04/15 08:33:32;;;;;;;3.40;2.50;;;;;;;;;;5412917;26;20814;-81
2024/04/15 08:35:58;;;;;;;4.70;2.47;;;;;;;;;;5412346;26;20633;-81
2024/04/15 08:38:25;;;;;;;4.10;2.90;;;;;;;;;;5412184;26;20717;-80
2024/04/15 08:40:55;;;;;;;4.10;2.60;;;;;;;;;;5412167;26;20322;-80
2024/04/15 08:43:22;;;;;;;5.50;3.03;;;;;;;;;;5412032;26;20225;-79
2024/04/15 08:45:54;;;;;;;7.70;3.30;;;;;;;;;;5408313;26;20219;-79
2024/04/15 08:48:24;;;;;;;4.53;2.97;;;;;;;;;;5377010;26;20253;-79
2024/04/15 08:50:51;;;;;;;4.43;2.90;;;;;;;;;;5411965;26;20545;-80
2024/04/15 08:53:17;;;;;;;5.60;3.10;;;;;;;;;;5412322;26;20600;-80
2024/04/15 08:55:43;;;;;;;5.77;3.10;;;;;;;;;;5412363;26;20234;-80
2024/04/15 08:58:11;;;;;;;4.30;2.67;;;;;;;;;;5381160;26;20258;-80
2024/04/15 09:00:38;;;;;;;4.77;2.57;;;;;;;;;;5412233;26;20221;-80
2024/04/15 09:03:05;;;;;;;4.73;3.27;;;;;;;;;;5412110;26;20232;-80
2024/04/15 09:05:31;;;;;;;7.83;3.20;;;;;;;;;;5411752;26;20337;-80
2024/04/15 09:07:57;;;;;;;2.77;2.40;;;;;;;;;;5411954;26;20325;-79
2024/04/15 09:10:23;;;;;;;2.60;2.40;;;;;;;;;;5412632;26;20275;-80
2024/04/15 09:12:49;;;;;;;5.57;2.70;;;;;;;;;;5412179;26;20248;-80
2024/04/15 09:15:17;;;;;;;3.53;2.50;;;;;;;;;;5412060;26;20273;-80
2024/04/15 09:17:43;;;;;;;3.13;2.77;;;;;;;;;;5381005;26;20632;-80
2024/04/15 09:20:10;;;;;;;6.07;2.90;;;;;;;;;;5411748;26;20218;-79
2024/04/15 09:22:36;;;;;;;4.47;2.73;;;;;;;;;;5409808;26;20218;-79
2024/04/15 09:25:03;;;;;;;3.83;2.80;;;;;;;;;;5410430;26;20235;-79
2024/04/15 09:27:29;;;;;;;5.43;2.97;;;;;;;;;;5410999;26;20776;-78
2024/04/15 09:29:55;;;;;;;2.83;2.50;;;;;;;;;;5413450;26;20280;-79
2024/04/15 09:32:21;;;;;;;6.60;2.97;;;;;;;;;;5413580;26;20333;-79
2024/04/15 09:34:48;;;;;;;3.83;2.50;;;;;;;;;;5381613;26;20241;-79
2024/04/15 09:37:14;;;;;;;3.90;2.80;;;;;;;;;;5413942;26;20217;-79
2024/04/15 09:39:42;;;;;;;2.80;2.07;;;;;;;;;;5382258;26;20676;-79
2024/04/15 09:42:09;;;;;;;2.37;1.93;;;;;;;;;;5412970;26;20680;-78
2024/04/15 09:44:45;;;;;;;2.73;2.23;;;;;;;;;;5413420;26;20248;-81
2024/04/15 09:47:11;;;;;;;3.30;3.00;;;;;;;;;;5412407;26;20217;-79
2024/04/15 09:49:37;;;;;;;4.33;2.23;;;;;;;;;;5411686;26;20221;-79
2024/04/15 09:52:04;;;;;;;2.40;2.20;;;;;;;;;;5379979;26;20266;-78
2024/04/15 09:54:33;;;;;;;3.47;2.27;;;;;;;;;;5410202;26;20240;-78
2024/04/15 09:57:18;;;;;;;2.20;2.00;;;;;;;;;;5380188;26;20733;-79
2024/04/15 09:59:45;;;;;;;2.93;2.10;;;;;;;;;;5410533;26;20265;-79
2024/04/15 10:02:26;;;;;;;5.13;2.63;;;;;;;;;;5410635;26;20717;-79
2024/04/15 10:04:54;;;;;;;3.23;2.43;;;;;;;;;;5410741;26;20271;-79
2024/04/15 10:07:21;;;;;;;3.53;2.30;;;;;;;;;;5411453;26;20256;-79
2024/04/15 10:09:48;;;;;;;3.03;2.53;;;;;;;;;;5411417;26;20278;-79
2024/04/15 10:12:15;;;;;;;2.53;2.27;;;;;;;;;;5411472;26;20269;-79
2024/04/15 10:14:41;;;;;;;7.77;2.43;;;;;;;;;;5411098;26;20296;-79
2024/04/15 10:17:08;;;;;;;3.33;2.67;;;;;;;;;;5411499;26;20276;-80
2024/04/15 10:19:34;;;;;;;2.70;2.50;;;;;;;;;;5412581;26;20215;-80
2024/04/15 10:22:01;;;;;;;3.70;2.00;;;;;;;;;;5414224;26;20220;-80
2024/04/15 10:24:27;;;;;;;1.90;1.70;;;;;;;;;;5382757;26;20321;-81
2024/04/15 10:26:53;;;;;;;3.10;1.87;;;;;;;;;;5414982;26;20674;-81
2024/04/15 10:29:24;;;;;;;3.17;2.00;;;;;;;;;;5413722;26;20330;-80
2024/04/15 10:31:54;;;;;;;2.03;1.60;;;;;;;;;;5413442;26;20222;-80
2024/04/15 10:34:24;;;;;;;2.73;1.70;;;;;;;;;;5412859;26;20234;-80
2024/04/15 10:36:50;;;;;;;1.97;1.50;;;;;;;;;;5412498;26;20226;-80
2024/04/15 10:39:17;;;;;;;4.27;1.70;;;;;;;;;;5381363;26;20238;-79
2024/04/15 10:41:44;;;;;;;2.03;1.60;;;;;;;;;;5382453;26;20573;-79
2024/04/15 10:44:10;;;;;;;2.27;1.70;;;;;;;;;;5412906;26;20234;-80
2024/04/15 10:46:39;;;;;;;1.30;1.20;;;;;;;;;;5382766;26;20218;-80
2024/04/15 10:49:05;;;;;;;3.10;1.60;;;;;;;;;;5413452;26;20221;-80
2024/04/15 10:51:31;;;;;;;1.87;1.60;;;;;;;;;;5412744;26;20320;-80
2024/04/15 10:53:57;;;;;;;3.17;1.60;;;;;;;;;;5413229;26;20249;-80
2024/04/15 10:56:23;;;;;;;2.33;1.67;;;;;;;;;;5382073;26;20217;-81
2024/04/15 10:58:49;;;;;;;3.03;1.40;;;;;;;;;;5412645;26;20221;-80
2024/04/15 11:01:15;;;;;;;2.80;1.50;;;;;;;;;;5412223;26;20218;-80
2024/04/15 11:03:42;;;;;;;3.73;1.47;;;;;;;;;;5381438;26;20289;-80
2024/04/15 11:06:09;;;;;;;7.03;1.90;;;;;;;;;;5412349;26;20221;-81
2024/04/15 11:08:35;;;;;;;3.33;1.67;;;;;;;;;;5412273;26;20595;-81
2024/04/15 11:11:01;;;;;;;1.93;1.57;;;;;;;;;;5412201;26;20653;-80
2024/04/15 11:13:27;;;;;;;3.57;1.40;;;;;;;;;;5412031;26;20217;-80
2024/04/15 11:15:56;;;;;;;3.37;1.33;;;;;;;;;;5412660;26;20267;-79
2024/04/15 11:18:23;;;;;;;1.73;1.30;;;;;;;;;;5380651;26;20286;-80
2024/04/15 11:20:57;;;;;;;3.50;1.40;;;;;;;;;;5412462;26;20222;-79
2024/04/15 11:23:23;;;;;;;3.90;1.37;;;;;;;;;;5408315;26;20338;-79
2024/04/15 11:25:50;;;;;;;3.30;1.40;;;;;;;;;;5408958;26;20629;-79
2024/04/15 11:28:18;;;;;;;8.93;1.35;;;;;;;;;;5409471;26;20221;-79
2024/04/15 11:30:44;;;;;;;2.65;1.20;;;;;;;;;;5408991;26;20655;-79
2024/04/15 11:33:11;;;;;;;1.00;0.90;;;;;;;;;;5408958;26;20566;-79
2024/04/15 11:35:45;;;;;;;1.52;1.05;;;;;;;;;;5409284;26;20241;-79
2024/04/15 11:38:11;;;;;;;2.38;1.35;;;;;;;;;;5409168;26;20201;-79
2024/04/15 11:40:37;;;;;;;1.60;1.15;;;;;;;;;;5409389;26;20217;-79
2024/04/15 11:43:03;;;;;;;1.85;1.23;;;;;;;;;;5409282;26;20251;-79
2024/04/15 11:45:30;;;;;;;2.20;1.02;;;;;;;;;;5378821;26;20277;-79
2024/04/15 11:47:57;;;;;;;2.45;1.15;;;;;;;;;;5378185;26;20248;-78
2024/04/15 11:50:23;;;;;;;1.95;1.25;;;;;;;;;;5409596;26;20213;-78
2024/04/15 11:52:50;;;;;;;1.43;1.03;;;;;;;;;;5408406;26;20272;-78
2024/04/15 11:55:21;;;;;;;1.83;1.20;;;;;;;;;;5408912;26;20226;-78
2024/04/15 11:57:47;;;;;;;3.07;1.10;;;;;;;;;;5408446;26;20622;-78
2024/04/15 12:00:14;;;;;;;2.50;1.33;;;;;;;;;;5409039;26;20217;-79
2024/04/15 12:02:43;;;;;;;2.80;1.30;;;;;;;;;;5410136;26;20454;-78
2024/04/15 12:05:10;;;;;;;1.27;1.13;;;;;;;;;;5409742;26;20230;-78
2024/04/15 12:07:38;;;;;;;1.73;1.20;;;;;;;;;;5409894;26;20221;-78
2024/04/15 12:10:05;;;;;;;3.90;1.43;;;;;;;;;;5409518;26;20268;-79
2024/04/15 12:12:32;;;;;;;2.93;1.07;;;;;;;;;;5410330;26;20221;-79
2024/04/15 12:14:58;;;;;;;2.87;0.90;;;;;;;;;;5379668;26;20341;-79
2024/04/15 12:17:25;;;;;;;1.20;0.95;;;;;;;;;;5410893;26;20233;-79
2024/04/15 12:19:51;;;;;;;3.65;1.10;;;;;;;;;;5410605;26;20218;-79
2024/04/15 12:22:17;;;;;;;1.52;1.00;;;;;;;;;;5409463;26;20293;-78
2024/04/15 12:24:43;;;;;;;1.95;1.13;;;;;;;;;;5408089;26;20226;-77
2024/04/15 12:27:09;;;;;;;1.38;1.00;;;;;;;;;;5407798;26;20268;-77
2024/04/15 12:29:35;;;;;;;1.73;1.17;;;;;;;;;;5407680;26;20319;-78
2024/04/15 12:32:01;;;;;;;1.33;1.05;;;;;;;;;;5409007;26;20218;-78
2024/04/15 12:34:27;;;;;;;2.80;0.90;;;;;;;;;;5408522;26;20259;-78
2024/04/15 12:36:53;;;;;;;3.97;1.17;;;;;;;;;;5377386;26;20229;-78
2024/04/15 12:39:19;;;;;;;4.93;1.10;;;;;;;;;;5408214;26;20221;-78
2024/04/15 12:41:45;;;;;;;2.65;1.30;;;;;;;;;;5376918;26;20244;-78
2024/04/15 12:44:12;;;;;;;3.83;1.42;;;;;;;;;;5408639;26;20234;-78
2024/04/15 12:46:38;;;;;;;1.52;1.20;;;;;;;;;;5378298;26;20237;-79
2024/04/15 12:49:07;;;;;;;2.20;1.20;;;;;;;;;;5379018;26;20255;-79
2024/04/15 12:51:33;;;;;;;2.88;1.10;;;;;;;;;;5409201;26;20307;-79
2024/04/15 12:53:59;;;;;;;1.27;1.17;;;;;;;;;;5409261;26;20234;-78
2024/04/15 12:56:25;;;;;;;1.13;1.00;;;;;;;;;;5409352;26;20257;-79
2024/04/15 12:58:51;;;;;;;3.00;1.30;;;;;;;;;;5407071;26;20218;-78
2024/04/15 13:01:17;;;;;;;2.57;1.40;;;;;;;;;;5406954;26;20213;-77
2024/04/15 13:03:43;;;;;;;4.47;1.57;;;;;;;;;;5409607;26;20260;-77
2024/04/15 13:06:09;;;;;;;2.87;1.60;;;;;;;;;;5410833;26;20230;-77
2024/04/15 13:08:36;;;;;;;1.73;1.30;;;;;;;;;;5410677;26;20712;-77
2024/04/15 13:11:02;;;;;;;1.98;1.33;;;;;;;;;;5410814;26;20264;-78
2024/04/15 13:13:28;;;;;;;3.25;1.58;;;;;;;;;;5410646;26;20684;-77
2024/04/15 13:15:54;;;;;;;3.20;1.65;;;;;;;;;;5411136;26;20704;-78
2024/04/15 13:18:20;;;;;;;2.42;1.30;;;;;;;;;;5411007;26;20221;-78
2024/04/15 13:20:46;;;;;;;2.75;1.50;;;;;;;;;;5411550;26;20467;-80
2024/04/15 13:23:12;;;;;;;3.03;1.55;;;;;;;;;;5412868;26;20210;-79
2024/04/15 13:25:38;;;;;;;2.63;1.25;;;;;;;;;;5413008;26;20301;-79
2024/04/15 13:28:04;;;;;;;2.85;1.50;;;;;;;;;;5412432;26;20218;-78
2024/04/15 13:30:30;;;;;;;2.70;1.30;;;;;;;;;;5413229;26;20268;-79
2024/04/15 13:32:56;;;;;;;4.03;1.33;;;;;;;;;;5412934;26;20317;-79
2024/04/15 13:35:22;;;;;;;4.28;1.40;;;;;;;;;;5413155;26;20278;-79
2024/04/15 13:37:49;;;;;;;4.28;1.30;;;;;;;;;;5412617;26;20556;-79
2024/04/15 13:40:15;;;;;;;3.67;1.20;;;;;;;;;;5413192;26;20213;-78
2024/04/15 13:42:42;;;;;;;1.60;1.02;;;;;;;;;;5412043;26;20229;-78
2024/04/15 13:45:08;;;;;;;2.08;1.30;;;;;;;;;;5411475;26;20226;-78
2024/04/15 13:47:34;;;;;;;2.05;1.40;;;;;;;;;;5412316;26;20758;-79
2024/04/15 13:50:00;;;;;;;5.22;1.23;;;;;;;;;;5411978;26;20222;-78
2024/04/15 13:52:26;;;;;;;3.15;1.30;;;;;;;;;;5410647;26;20321;-78
2024/04/15 13:54:52;;;;;;;2.67;1.00;;;;;;;;;;5411119;26;20245;-83
2024/04/15 13:57:18;;;;;;;2.03;1.38;;;;;;;;;;5412217;26;20325;-81
2024/04/15 13:59:44;;;;;;;1.05;0.93;;;;;;;;;;5411052;26;20264;-82
2024/04/15 14:02:11;;;;;;;2.08;1.00;;;;;;;;;;5411313;26;20241;-81
2024/04/15 14:04:37;;;;;;;4.93;1.40;;;;;;;;;;5409819;26;20241;-80
2024/04/15 14:07:03;;;;;;;2.83;1.00;;;;;;;;;;5410314;26;20576;-82
2024/04/15 14:09:29;;;;;;;1.67;1.00;;;;;;;;;;5409979;26;20325;-82
2024/04/15 14:11:55;;;;;;;2.67;1.33;;;;;;;;;;5410487;26;20253;-81
2024/04/15 14:14:21;;;;;;;2.35;0.90;;;;;;;;;;5409865;26;20234;-81
2024/04/15 14:16:47;;;;;;;1.55;1.10;;;;;;;;;;5410605;26;20302;-82
2024/04/15 14:19:14;;;;;;;2.90;0.93;;;;;;;;;;5410766;26;20221;-82
2024/04/15 14:21:40;;;;;;;1.30;1.10;;;;;;;;;;5410896;26;20222;-83
2024/04/15 14:24:06;;;;;;;2.05;0.95;;;;;;;;;;5410594;26;20225;-81
2024/04/15 14:26:33;;;;;;;2.95;1.10;;;;;;;;;;5379605;26;20230;-81
2024/04/15 14:28:59;;;;;;;5.65;1.27;;;;;;;;;;5410440;26;20656;-81
2024/04/15 14:31:25;;;;;;;3.20;0.90;;;;;;;;;;5410570;26;20824;-82
2024/04/15 14:33:51;;;;;;;4.60;1.20;;;;;;;;;;5411899;26;20238;-83
2024/04/15 14:36:17;;;;;;;4.05;1.02;;;;;;;;;;5412099;26;20230;-83
2024/04/15 14:38:43;;;;;;;2.10;1.20;;;;;;;;;;5412910;26;20325;-83